createdAt,value
2023-05-19T00:02:26.041Z,97053.06
2023-05-19T00:04:55.013Z,97049.56
2023-05-19T00:07:28.657Z,97052.81
2023-05-19T00:09:57.347Z,97043.66
2023-05-19T00:12:27.138Z,97038.72
2023-05-19T00:14:55.559Z,97045.72
2023-05-19T00:17:24.118Z,97036.31
2023-05-19T00:19:52.506Z,97041.81
2023-05-19T00:22:20.415Z,97039.81
2023-05-19T00:24:49.076Z,97042.78
2023-05-19T00:27:16.934Z,97041.34
2023-05-19T00:29:46.243Z,97038.81
2023-05-19T00:32:15.615Z,97046.53
2023-05-19T00:34:43.641Z,97039.78
2023-05-19T00:37:11.518Z,97038.66
2023-05-19T00:39:39.437Z,97038.31
2023-05-19T00:42:07.672Z,97035.78
2023-05-19T00:44:38.867Z,97033.75
2023-05-19T00:47:08.525Z,97029.75
2023-05-19T00:49:36.936Z,97025.63
2023-05-19T00:52:07.853Z,97034.63
2023-05-19T00:54:36.053Z,97030.44
2023-05-19T00:57:04.646Z,97025.88
2023-05-19T00:59:32.628Z,97029.84
2023-05-19T01:02:02.868Z,97032.19
2023-05-19T01:04:34.852Z,97023.81
2023-05-19T01:07:02.730Z,97022.25
2023-05-19T01:09:32.199Z,97021.84
2023-05-19T01:12:00.854Z,97028.22
2023-05-19T01:14:29.846Z,97024.94
2023-05-19T01:17:05.630Z,97019.66
2023-05-19T01:19:51.888Z,97025.50
2023-05-19T01:22:42.801Z,97026.34
2023-05-19T01:25:48.321Z,97029.34
2023-05-19T01:28:45.531Z,97035.59
2023-05-19T01:31:18.051Z,97037.16
2023-05-19T01:33:47.796Z,97033.78
2023-05-19T01:36:16.782Z,97029.13
2023-05-19T01:38:45.226Z,97030.91
2023-05-19T01:41:13.532Z,97033.78
2023-05-19T01:43:43.239Z,97023.78
2023-05-19T01:46:12.769Z,97030.88
2023-05-19T01:48:42.640Z,97037.94
2023-05-19T01:51:10.601Z,97028.09
2023-05-19T01:53:38.770Z,97035.09
2023-05-19T01:56:08.010Z,97021.63
2023-05-19T01:58:42.832Z,97017.53
2023-05-19T02:01:19.548Z,97020.16
2023-05-19T02:04:03.851Z,97021.13
2023-05-19T02:06:42.710Z,97023.28
2023-05-19T02:09:17.532Z,97019.78
2023-05-19T02:11:52.339Z,97018.94
2023-05-19T02:14:27.837Z,97011.63
2023-05-19T02:17:00.333Z,97016.28
2023-05-19T02:19:34.309Z,97033.13
2023-05-19T02:22:02.399Z,97027.84
2023-05-19T02:24:30.460Z,97033.22
2023-05-19T02:27:00.165Z,97037.34
2023-05-19T02:29:28.076Z,97035.53
2023-05-19T02:31:56.002Z,97046.22
2023-05-19T02:34:23.994Z,97041.88
2023-05-19T02:36:53.775Z,97029.50
2023-05-19T02:39:21.721Z,97029.00
2023-05-19T02:41:50.454Z,97032.38
2023-05-19T02:44:19.021Z,97031.41
2023-05-19T02:46:48.238Z,97021.06
2023-05-19T02:49:16.228Z,97023.06
2023-05-19T02:51:44.080Z,97018.84
2023-05-19T02:54:13.542Z,97014.41
2023-05-19T02:56:41.771Z,97017.06
2023-05-19T02:59:09.707Z,97004.91
2023-05-19T03:01:40.749Z,97017.16
2023-05-19T03:04:09.599Z,97014.19
2023-05-19T03:06:37.699Z,97014.03
2023-05-19T03:09:05.877Z,97011.56
2023-05-19T03:11:35.237Z,97006.09
2023-05-19T03:14:03.608Z,97011.38
2023-05-19T03:16:31.597Z,97007.66
2023-05-19T03:19:00.214Z,97014.44
2023-05-19T03:21:28.885Z,97007.25
2023-05-19T03:23:56.981Z,97010.63
2023-05-19T03:26:25.154Z,97010.63
2023-05-19T03:28:54.363Z,97012.78
2023-05-19T03:31:22.304Z,97011.81
2023-05-19T03:33:50.248Z,97010.88
2023-05-19T03:36:18.574Z,97003.63
2023-05-19T03:38:46.440Z,97011.31
2023-05-19T03:41:14.351Z,97014.91
2023-05-19T03:43:42.210Z,97011.06
2023-05-19T03:46:12.484Z,97005.78
2023-05-19T03:48:44.731Z,97013.84
2023-05-19T03:51:34.889Z,97011.75
2023-05-19T03:54:11.185Z,97019.97
2023-05-19T03:56:41.057Z,97014.50
2023-05-19T03:59:10.549Z,97020.53
2023-05-19T04:01:39.873Z,97027.72
2023-05-19T04:04:07.757Z,97024.09
2023-05-19T04:06:36.339Z,97020.41
2023-05-19T04:09:05.422Z,97016.31
2023-05-19T04:11:34.697Z,97015.94
2023-05-19T04:14:03.232Z,97019.63
2023-05-19T04:16:31.296Z,97021.59
2023-05-19T04:19:00.806Z,97020.22
2023-05-19T04:21:29.221Z,97024.44
2023-05-19T04:23:58.118Z,97022.13
2023-05-19T04:26:26.925Z,97027.91
2023-05-19T04:28:56.592Z,97019.16
2023-05-19T04:31:24.873Z,97024.91
2023-05-19T04:33:53.494Z,97028.88
2023-05-19T04:36:24.086Z,97032.19
2023-05-19T04:38:55.117Z,97026.66
2023-05-19T04:41:26.672Z,97024.66
2023-05-19T04:43:57.497Z,97027.31
2023-05-19T04:46:26.242Z,97022.97
2023-05-19T04:48:57.376Z,97025.41
2023-05-19T04:51:29.825Z,97028.88
2023-05-19T04:54:01.602Z,97023.84
2023-05-19T04:56:30.215Z,97026.25
2023-05-19T04:58:58.646Z,97028.31
2023-05-19T05:01:28.399Z,97024.94
2023-05-19T05:03:59.056Z,97025.91
2023-05-19T05:06:28.738Z,97018.72
2023-05-19T05:08:56.931Z,97027.91
2023-05-19T05:11:26.761Z,97029.72
2023-05-19T05:13:58.603Z,97039.88
2023-05-19T05:16:29.504Z,97031.75
2023-05-19T05:18:59.671Z,97025.91
2023-05-19T05:21:30.109Z,97029.72
2023-05-19T05:23:58.567Z,97032.78
2023-05-19T05:26:33.631Z,97036.66
2023-05-19T05:29:02.286Z,97032.50
2023-05-19T05:31:31.390Z,97032.25
2023-05-19T05:34:00.731Z,97031.59
2023-05-19T05:36:34.989Z,97026.09
2023-05-19T05:39:03.682Z,97034.13
2023-05-19T05:41:35.413Z,97035.59
2023-05-19T05:44:10.545Z,97030.47
2023-05-19T05:46:40.980Z,97033.25
2023-05-19T05:49:09.478Z,97033.03
2023-05-19T05:51:39.286Z,97030.03
2023-05-19T05:54:08.203Z,97034.69
2023-05-19T05:56:41.875Z,97036.31
2023-05-19T05:59:12.101Z,97037.00
2023-05-19T06:01:40.039Z,97052.88
2023-05-19T06:04:10.792Z,97044.94
2023-05-19T06:06:40.093Z,97039.81
2023-05-19T06:09:09.561Z,97040.66
2023-05-19T06:11:37.802Z,97037.75
2023-05-19T06:14:06.535Z,97043.75
2023-05-19T06:16:49.796Z,97032.69
2023-05-19T06:19:20.941Z,97036.56
2023-05-19T06:21:51.156Z,97033.81
2023-05-19T06:24:20.511Z,97042.38
2023-05-19T06:26:49.356Z,97037.47
2023-05-19T06:29:18.340Z,97036.78
2023-05-19T06:31:49.371Z,97031.47
2023-05-19T06:34:18.891Z,97028.84
2023-05-19T06:36:48.676Z,97031.25
2023-05-19T06:39:20.050Z,97035.38
2023-05-19T06:41:48.903Z,97029.59
2023-05-19T06:44:37.753Z,97034.78
2023-05-19T06:47:10.563Z,97025.03
2023-05-19T06:49:39.612Z,97021.66
2023-05-19T06:52:08.355Z,97022.28
2023-05-19T06:54:40.470Z,97021.91
2023-05-19T06:57:08.566Z,97039.84
2023-05-19T06:59:40.775Z,97033.94
2023-05-19T07:02:11.190Z,97029.13
2023-05-19T07:04:41.495Z,97031.56
2023-05-19T07:07:09.757Z,97023.00
2023-05-19T07:09:39.447Z,97033.97
2023-05-19T07:12:07.835Z,97027.94
2023-05-19T07:14:37.443Z,97029.59
2023-05-19T07:17:05.884Z,97028.75
2023-05-19T07:19:37.141Z,97033.44
2023-05-19T07:22:05.933Z,97022.34
2023-05-19T07:24:33.856Z,97022.34
2023-05-19T07:27:03.264Z,97033.31
2023-05-19T07:29:31.194Z,97022.69
2023-05-19T07:31:59.071Z,97024.44
2023-05-19T07:34:26.945Z,97035.41
2023-05-19T07:36:54.897Z,97030.16
2023-05-19T07:39:25.269Z,97031.22
2023-05-19T07:41:55.687Z,97021.94
2023-05-19T07:44:27.030Z,97021.78
2023-05-19T07:46:55.326Z,97020.50
2023-05-19T07:49:23.728Z,97021.03
2023-05-19T07:51:51.900Z,97012.00
2023-05-19T07:54:19.820Z,97017.81
2023-05-19T07:56:48.287Z,97012.88
2023-05-19T07:59:16.302Z,97016.44
2023-05-19T08:01:45.700Z,97008.22
2023-05-19T08:04:14.070Z,97006.75
2023-05-19T08:06:42.737Z,97004.41
2023-05-19T08:09:12.002Z,97004.84
2023-05-19T08:11:40.137Z,96997.75
2023-05-19T08:14:08.166Z,97000.22
2023-05-19T08:16:36.032Z,96997.31
2023-05-19T08:19:07.277Z,97001.78
2023-05-19T08:21:35.537Z,97000.44
2023-05-19T08:24:04.364Z,96994.25
2023-05-19T08:26:32.250Z,96997.69
2023-05-19T08:29:00.584Z,96996.47
2023-05-19T08:31:29.469Z,97001.22
2023-05-19T08:33:57.877Z,96994.66
2023-05-19T08:36:27.670Z,97004.16
2023-05-19T08:38:55.600Z,96994.81
2023-05-19T08:41:24.313Z,96995.44
2023-05-19T08:43:52.250Z,96988.63
2023-05-19T08:46:23.043Z,96993.44
2023-05-19T08:48:55.252Z,96984.38
2023-05-19T08:51:34.277Z,96989.16
2023-05-19T08:54:11.402Z,96987.47
2023-05-19T08:56:40.107Z,96998.81
2023-05-19T08:59:09.162Z,96985.97
2023-05-19T09:01:38.660Z,96985.19
2023-05-19T09:04:07.507Z,96980.81
2023-05-19T09:06:36.935Z,96986.75
2023-05-19T09:09:05.304Z,96978.56
2023-05-19T09:11:35.642Z,96981.78
2023-05-19T09:14:03.496Z,96979.31
2023-05-19T09:16:32.494Z,96978.72
2023-05-19T09:19:01.190Z,96982.53
2023-05-19T09:21:31.555Z,96987.44
2023-05-19T09:24:06.064Z,96989.75
2023-05-19T09:26:38.676Z,96987.69
2023-05-19T09:29:13.401Z,96983.38
2023-05-19T09:31:42.116Z,96983.25
2023-05-19T09:34:14.306Z,96986.28
2023-05-19T09:36:42.689Z,96983.63
2023-05-19T09:39:18.655Z,96984.34
2023-05-19T09:41:47.461Z,96977.09
2023-05-19T09:44:22.485Z,96982.81
2023-05-19T09:46:50.787Z,96985.72
2023-05-19T09:49:22.825Z,96970.75
2023-05-19T09:51:52.576Z,96982.81
2023-05-19T09:54:23.703Z,96982.75
2023-05-19T09:56:59.899Z,96977.44
2023-05-19T09:59:32.093Z,96968.75
2023-05-19T10:02:02.159Z,96974.34
2023-05-19T10:04:31.416Z,96974.34
2023-05-19T10:07:00.442Z,96981.22
2023-05-19T10:09:31.009Z,96979.38
2023-05-19T10:12:00.316Z,96979.38
2023-05-19T10:14:30.302Z,96982.38
2023-05-19T10:17:00.091Z,96970.19
2023-05-19T10:19:29.096Z,96977.88
2023-05-19T10:21:57.738Z,96982.75
2023-05-19T10:24:25.646Z,96976.22
2023-05-19T10:27:02.315Z,96981.78
2023-05-19T10:29:33.078Z,96981.78
2023-05-19T10:32:05.957Z,96970.84
2023-05-19T10:34:54.877Z,96965.72
2023-05-19T10:37:29.563Z,96968.66
2023-05-19T10:39:59.133Z,96966.66
2023-05-19T10:42:34.941Z,96974.78
2023-05-19T10:45:13.033Z,96960.91
2023-05-19T10:47:42.100Z,96972.38
2023-05-19T10:50:11.164Z,96975.03
2023-05-19T10:52:40.265Z,96970.03
2023-05-19T10:55:10.182Z,96963.84
2023-05-19T10:57:56.800Z,96973.56
2023-05-19T11:00:29.844Z,96971.69
2023-05-19T11:03:13.939Z,96964.69
2023-05-19T11:05:42.594Z,96976.84
2023-05-19T11:08:12.128Z,96973.81
2023-05-19T11:10:40.264Z,96973.81
2023-05-19T11:13:22.607Z,96967.78
2023-05-19T11:15:50.990Z,96974.25
2023-05-19T11:18:20.606Z,96974.56
2023-05-19T11:20:59.057Z,96975.94
2023-05-19T11:23:27.079Z,96975.09
2023-05-19T11:25:55.157Z,96975.22
2023-05-19T11:28:27.918Z,96969.53
2023-05-19T11:30:57.752Z,96973.72
2023-05-19T11:33:27.782Z,96977.88
2023-05-19T11:35:58.818Z,96971.34
2023-05-19T11:38:28.164Z,96964.53
2023-05-19T11:40:57.344Z,96959.75
2023-05-19T11:43:27.132Z,96964.25
2023-05-19T11:45:56.250Z,96958.97
2023-05-19T11:48:25.619Z,96960.06
2023-05-19T11:50:53.951Z,96947.53
2023-05-19T11:53:22.091Z,96959.28
2023-05-19T11:55:50.345Z,96960.28
2023-05-19T11:58:18.619Z,96954.53
2023-05-19T12:00:48.112Z,96958.56
2023-05-19T12:03:17.427Z,96954.47
2023-05-19T12:05:47.697Z,96955.06
2023-05-19T12:08:18.263Z,96955.03
2023-05-19T12:10:49.650Z,96949.44
2023-05-19T12:13:18.000Z,96945.22
2023-05-19T12:15:47.394Z,96955.03
2023-05-19T12:18:15.401Z,96957.53
2023-05-19T12:20:43.395Z,96956.59
2023-05-19T12:23:11.345Z,96962.19
2023-05-19T12:25:39.445Z,96961.19
2023-05-19T12:28:08.083Z,96957.41
2023-05-19T12:30:36.128Z,96969.88
2023-05-19T12:33:05.865Z,96964.13
2023-05-19T12:35:34.350Z,96970.94
2023-05-19T12:38:05.827Z,96958.22
2023-05-19T12:40:34.960Z,96964.38
2023-05-19T12:43:03.296Z,96964.38
2023-05-19T12:45:35.461Z,96963.94
2023-05-19T12:48:06.724Z,96967.97
2023-05-19T12:50:35.375Z,96966.91
2023-05-19T12:53:03.572Z,96958.63
2023-05-19T12:55:31.568Z,96966.97
2023-05-19T12:57:59.493Z,96965.63
2023-05-19T13:00:30.950Z,96974.44
2023-05-19T13:03:01.452Z,96972.06
2023-05-19T13:05:33.650Z,96975.84
2023-05-19T13:08:03.477Z,96970.34
2023-05-19T13:10:32.186Z,96973.06
2023-05-19T13:13:01.191Z,96959.13
2023-05-19T13:15:31.734Z,96950.75
2023-05-19T13:18:01.072Z,96948.34
2023-05-19T13:20:29.342Z,96948.50
2023-05-19T13:22:58.583Z,96944.44
2023-05-19T13:25:27.234Z,96942.34
2023-05-19T13:27:55.518Z,96946.25
2023-05-19T13:30:24.407Z,96942.91
2023-05-19T13:32:53.343Z,96934.09
2023-05-19T13:35:21.511Z,96943.44
2023-05-19T13:37:50.880Z,96939.69
2023-05-19T13:40:20.373Z,96939.84
2023-05-19T13:42:48.366Z,96929.31
2023-05-19T13:45:16.284Z,96930.72
2023-05-19T13:47:44.305Z,96939.41
2023-05-19T13:50:12.421Z,96937.28
2023-05-19T13:52:40.447Z,96936.28
2023-05-19T13:55:09.213Z,96938.50
2023-05-19T13:57:38.526Z,96930.09
2023-05-19T14:00:07.914Z,96939.91
2023-05-19T14:02:42.505Z,96925.81
2023-05-19T14:05:10.619Z,96924.28
2023-05-19T14:07:38.584Z,96927.75
2023-05-19T14:10:07.551Z,96923.25
2023-05-19T14:12:49.467Z,96916.13
2023-05-19T14:15:25.740Z,96922.25
2023-05-19T14:17:54.244Z,96921.03
2023-05-19T14:20:22.664Z,96919.34
2023-05-19T14:22:50.708Z,96911.09
2023-05-19T14:25:19.002Z,96920.63
2023-05-19T14:27:46.955Z,96910.69
2023-05-19T14:30:15.025Z,96911.09
2023-05-19T14:32:44.345Z,96907.75
2023-05-19T14:35:12.509Z,96912.81
2023-05-19T14:37:40.430Z,96920.06
2023-05-19T14:40:09.436Z,96921.47
2023-05-19T14:42:37.419Z,96918.28
2023-05-19T14:45:05.843Z,96921.34
2023-05-19T14:47:33.952Z,96922.19
2023-05-19T14:50:03.294Z,96916.03
2023-05-19T14:52:31.220Z,96913.97
2023-05-19T14:54:59.201Z,96916.75
2023-05-19T14:57:27.260Z,96912.28
2023-05-19T14:59:55.103Z,96920.25
2023-05-19T15:02:23.032Z,96917.78
2023-05-19T15:04:51.003Z,96911.88
2023-05-19T15:07:20.571Z,96906.16
2023-05-19T15:09:48.472Z,96911.75
2023-05-19T15:12:16.398Z,96909.50
2023-05-19T15:14:44.253Z,96905.31
2023-05-19T15:17:12.253Z,96901.00
2023-05-19T15:19:41.048Z,96907.13
2023-05-19T15:22:09.316Z,96904.75
2023-05-19T15:24:38.579Z,96912.03
2023-05-19T15:27:07.017Z,96897.88
2023-05-19T15:29:35.615Z,96904.44
2023-05-19T15:32:04.856Z,96898.44
2023-05-19T15:34:32.841Z,96892.69
2023-05-19T15:37:00.747Z,96896.19
2023-05-19T15:39:28.557Z,96888.66
2023-05-19T15:41:58.595Z,96889.34
2023-05-19T15:44:28.821Z,96881.50
2023-05-19T15:46:56.933Z,96888.53
2023-05-19T15:49:25.164Z,96888.38
2023-05-19T15:51:53.114Z,96889.63
2023-05-19T15:54:21.122Z,96885.72
2023-05-19T15:56:49.078Z,96885.16
2023-05-19T15:59:18.355Z,96876.63
2023-05-19T16:01:46.455Z,96874.41
2023-05-19T16:04:14.465Z,96880.69
2023-05-19T16:06:42.673Z,96875.06
2023-05-19T16:09:10.665Z,96873.28
2023-05-19T16:11:38.954Z,96867.97
2023-05-19T16:14:06.824Z,96865.31
2023-05-19T16:16:36.150Z,96862.91
2023-05-19T16:19:04.054Z,96856.94
2023-05-19T16:21:32.279Z,96859.28
2023-05-19T16:24:00.267Z,96856.63
2023-05-19T16:26:28.992Z,96855.81
2023-05-19T16:28:56.933Z,96858.03
2023-05-19T16:31:25.133Z,96855.09
2023-05-19T16:33:54.663Z,96852.16
2023-05-19T16:36:23.498Z,96854.09
2023-05-19T16:38:51.394Z,96854.41
2023-05-19T16:41:19.229Z,96851.88
2023-05-19T16:43:47.234Z,96848.13
2023-05-19T16:46:15.149Z,96854.38
2023-05-19T16:48:43.071Z,96844.63
2023-05-19T16:51:12.335Z,96840.66
2023-05-19T16:53:41.206Z,96839.84
2023-05-19T16:56:09.317Z,96845.88
2023-05-19T16:58:37.238Z,96845.72
2023-05-19T17:01:05.518Z,96843.22
2023-05-19T17:03:35.657Z,96853.69
2023-05-19T17:06:03.650Z,96847.69
2023-05-19T17:08:33.076Z,96845.03
2023-05-19T17:11:01.208Z,96840.25
2023-05-19T17:13:33.568Z,96840.56
2023-05-19T17:16:01.443Z,96837.59
2023-05-19T17:18:30.463Z,96836.88
2023-05-19T17:20:59.319Z,96832.84
2023-05-19T17:23:27.199Z,96836.75
2023-05-19T17:25:56.714Z,96834.53
2023-05-19T17:28:24.721Z,96837.19
2023-05-19T17:30:52.554Z,96832.84
2023-05-19T17:33:20.857Z,96836.22
2023-05-19T17:35:48.813Z,96834.81
2023-05-19T17:38:16.774Z,96835.66
2023-05-19T17:40:44.824Z,96829.50
2023-05-19T17:43:14.721Z,96830.47
2023-05-19T17:45:42.652Z,96829.22
2023-05-19T17:48:12.580Z,96821.38
2023-05-19T17:50:40.568Z,96826.13
2023-05-19T17:53:09.025Z,96828.78
2023-05-19T17:55:38.079Z,96820.81
2023-05-19T17:58:06.549Z,96826.56
2023-05-19T18:00:36.412Z,96837.19
2023-05-19T18:03:06.226Z,96825.03
2023-05-19T18:05:34.880Z,96830.47
2023-05-19T18:08:07.005Z,96832.72
2023-05-19T18:10:37.339Z,96829.34
2023-05-19T18:13:05.299Z,96830.88
2023-05-19T18:15:33.308Z,96821.91
2023-05-19T18:18:05.637Z,96826.97
2023-05-19T18:20:34.182Z,96820.09
2023-05-19T18:23:02.662Z,96821.63
2023-05-19T18:25:30.586Z,96821.63
2023-05-19T18:27:58.504Z,96820.94
2023-05-19T18:30:26.550Z,96823.03
2023-05-19T18:32:54.464Z,96819.13
2023-05-19T18:35:23.899Z,96822.19
2023-05-19T18:37:51.860Z,96822.59
2023-05-19T18:40:19.942Z,96820.19
2023-05-19T18:42:47.827Z,96820.59
2023-05-19T18:45:16.164Z,96816.91
2023-05-19T18:47:44.094Z,96816.34
2023-05-19T18:50:12.132Z,96825.00
2023-05-19T18:52:41.491Z,96819.97
2023-05-19T18:55:10.489Z,96812.53
2023-05-19T18:57:38.648Z,96812.81
2023-05-19T19:00:07.799Z,96814.31
2023-05-19T19:02:35.805Z,96807.47
2023-05-19T19:05:09.301Z,96809.41
2023-05-19T19:07:41.873Z,96814.13
2023-05-19T19:10:10.583Z,96807.94
2023-05-19T19:12:38.920Z,96812.88
2023-05-19T19:15:07.966Z,96818.16
2023-05-19T19:17:35.976Z,96820.75
2023-05-19T19:20:04.115Z,96826.16
2023-05-19T19:22:32.070Z,96827.28
2023-05-19T19:25:01.377Z,96832.25
2023-05-19T19:27:31.087Z,96831.91
2023-05-19T19:29:59.514Z,96833.28
2023-05-19T19:32:27.400Z,96835.72
2023-05-19T19:34:55.394Z,96840.31
2023-05-19T19:37:23.332Z,96830.81
2023-05-19T19:39:51.196Z,96834.72
2023-05-19T19:42:20.532Z,96830.34
2023-05-19T19:44:48.434Z,96829.84
2023-05-19T19:47:16.444Z,96818.91
2023-05-19T19:49:45.736Z,96827.25
2023-05-19T19:52:13.588Z,96830.88
2023-05-19T19:54:41.481Z,96826.78
2023-05-19T19:57:09.391Z,96818.47
2023-05-19T19:59:38.813Z,96825.81
2023-05-19T20:02:06.699Z,96824.88
2023-05-19T20:04:34.654Z,96826.81
2023-05-19T20:07:02.728Z,96819.22
2023-05-19T20:09:30.680Z,96826.34
2023-05-19T20:11:58.668Z,96825.75
2023-05-19T20:14:26.650Z,96830.22
2023-05-19T20:16:56.443Z,96833.13
2023-05-19T20:19:28.865Z,96838.16
2023-05-19T20:21:56.890Z,96833.13
2023-05-19T20:24:24.764Z,96833.22
2023-05-19T20:26:52.698Z,96825.28
2023-05-19T20:29:21.248Z,96828.91
2023-05-19T20:31:49.156Z,96832.41
2023-05-19T20:34:18.447Z,96820.00
2023-05-19T20:36:46.731Z,96828.91
2023-05-19T20:39:14.669Z,96823.72
2023-05-19T20:41:42.671Z,96817.72
2023-05-19T20:44:11.616Z,96821.09
2023-05-19T20:46:39.546Z,96818.53
2023-05-19T20:49:07.486Z,96818.81
2023-05-19T20:51:36.914Z,96818.69
2023-05-19T20:54:05.293Z,96811.59
2023-05-19T20:56:33.157Z,96808.81
2023-05-19T20:59:01.493Z,96808.31
2023-05-19T21:01:29.895Z,96805.81
2023-05-19T21:03:57.915Z,96808.59
2023-05-19T21:06:25.939Z,96811.97
2023-05-19T21:08:55.228Z,96804.13
2023-05-19T21:11:23.142Z,96795.09
2023-05-19T21:13:51.270Z,96796.78
2023-05-19T21:16:19.218Z,96796.53
2023-05-19T21:18:47.189Z,96794.84
2023-05-19T21:21:15.206Z,96793.16
2023-05-19T21:23:43.065Z,96791.38
2023-05-19T21:26:12.334Z,96787.41
2023-05-19T21:28:40.223Z,96790.06
2023-05-19T21:31:08.213Z,96791.03
2023-05-19T21:33:36.628Z,96780.66
2023-05-19T21:36:04.929Z,96789.59
2023-05-19T21:38:32.820Z,96789.59
2023-05-19T21:41:00.693Z,96786.22
2023-05-19T21:43:29.939Z,96788.88
2023-05-19T21:45:57.887Z,96777.44
2023-05-19T21:48:25.993Z,96779.00
2023-05-19T21:50:54.981Z,96779.97
2023-05-19T21:53:23.150Z,96778.16
2023-05-19T21:55:51.054Z,96772.25
2023-05-19T21:58:19.293Z,96764.47
2023-05-19T22:00:51.203Z,96760.75
2023-05-19T22:03:19.545Z,96750.38
2023-05-19T22:05:50.196Z,96758.44
2023-05-19T22:08:19.096Z,96759.28
2023-05-19T22:10:49.744Z,96759.28
2023-05-19T22:13:17.912Z,96760.38
2023-05-19T22:15:46.597Z,96759.41
2023-05-19T22:18:15.782Z,96753.91
2023-05-19T22:20:44.049Z,96750.81
2023-05-19T22:23:11.966Z,96755.22
2023-05-19T22:25:39.893Z,96751.03
2023-05-19T22:28:09.051Z,96759.59
2023-05-19T22:30:41.025Z,96754.31
2023-05-19T22:33:09.454Z,96761.91
2023-05-19T22:35:38.778Z,96756.03
2023-05-19T22:38:08.829Z,96747.63
2023-05-19T22:40:38.319Z,96745.94
2023-05-19T22:43:06.253Z,96747.84
2023-05-19T22:45:35.436Z,96739.91
2023-05-19T22:48:03.732Z,96737.53
2023-05-19T22:50:31.733Z,96736.59
2023-05-19T22:53:00.953Z,96730.31
2023-05-19T22:55:28.928Z,96731.97
2023-05-19T22:57:56.964Z,96733.06
2023-05-19T23:00:24.994Z,96726.13
2023-05-19T23:02:52.930Z,96730.78
2023-05-19T23:05:21.145Z,96728.41
2023-05-19T23:07:49.004Z,96735.38
2023-05-19T23:10:18.340Z,96729.38
2023-05-19T23:12:46.292Z,96727.94
2023-05-19T23:15:14.207Z,96730.47
2023-05-19T23:17:42.171Z,96728.88
2023-05-19T23:20:11.286Z,96726.22
2023-05-19T23:22:39.269Z,96729.03
2023-05-19T23:25:07.963Z,96722.66
2023-05-19T23:27:37.534Z,96729.84
2023-05-19T23:30:06.568Z,96719.28
2023-05-19T23:32:34.482Z,96719.03
2023-05-19T23:35:11.044Z,96714.59
2023-05-19T23:37:38.977Z,96708.44
2023-05-19T23:40:08.333Z,96715.28
2023-05-19T23:42:38.204Z,96718.06
2023-05-19T23:45:06.882Z,96716.28
2023-05-19T23:47:34.858Z,96707.72
2023-05-19T23:50:02.804Z,96709.53
2023-05-19T23:52:31.716Z,96705.06
2023-05-19T23:54:59.652Z,96710.16
2023-05-19T23:57:27.501Z,96714.47
2023-05-19T23:59:56.756Z,96707.34
